Time;durP1;ratioP1;P1;durP2;ratioP2;P2;SDS_P1;SDS_P2;PMS_P1;PMS_P2;Temp;Humidity;BMP_temperature;BMP_pressure;BME280_temperature;BME280_humidity;BME280_pressure;Samples;Min_cycle;Max_cycle;Signal;HPM_P1;HPM_P2
2022/08/23 00:00:49;;;;;;;;;;;;;;;;;;8393986;27;28609;-78
2022/08/23 00:04:50;;;;;;;;;;;;;;;;;;8404603;27;27364;-77
2022/08/23 00:08:50;;;;;;;;;;;;;;;;;;8386280;27;28645;-76
2022/08/23 00:12:50;;;;;;;;;;;;;;;;;;8404632;27;28386;-77
2022/08/23 00:16:50;;;;;;;;;;;;;;;;;;8400009;27;27948;-76
2022/08/23 00:20:50;;;;;;;;;;;;;;;;;;8383200;27;28555;-75
2022/08/23 00:24:50;;;;;;;;;;;;;;;;;;8401392;27;27800;-76
2022/08/23 00:28:51;;;;;;;;;;;;;;;;;;8393840;27;28067;-75
2022/08/23 00:32:51;;;;;;;;;;;;;;;;;;8400492;27;28139;-76
2022/08/23 00:36:51;;;;;;;;;;;;;;;;;;8399359;27;27722;-75
2022/08/23 00:40:51;;;;;;;;;;;;;;;;;;8394403;27;28300;-75
2022/08/23 00:49:10;;;;;;;;;;;;;;;;;;8399850;27;28458;-76
2022/08/23 00:53:11;;;;;;;;;;;;;;;;;;8403005;27;27495;-75
2022/08/23 00:57:12;;;;;;;;;;;;;;;;;;8402936;27;28586;-76
2022/08/23 01:01:12;;;;;;;;;;;;;;;;;;8398957;27;27610;-74
2022/08/23 01:05:12;;;;;;;;;;;;;;;;;;8401648;27;27786;-74
2022/08/23 01:09:12;;;;;;;;;;;;;;;;;;8392023;27;27401;-75
2022/08/23 01:13:14;;;;;;;;;;;;;;;;;;8400724;27;27351;-74
2022/08/23 01:17:14;;;;;;;;;;;;;;;;;;8405642;27;29538;-77
2022/08/23 01:21:14;;;;;;;;;;;;;;;;;;8385053;27;28128;-76
2022/08/23 01:25:14;;;;;;;;;;;;;;;;;;8395394;27;28771;-76
2022/08/23 01:29:16;;;;;;;;;;;;;;;;;;8404639;27;27694;-77
2022/08/23 01:33:16;;;;;;;;;;;;;;;;;;8407085;27;28489;-76
2022/08/23 01:37:16;;;;;;;;;;;;;;;;;;8410548;27;28892;-75
2022/08/23 01:41:16;;;;;;;;;;;;;;;;;;8389855;27;29336;-75
2022/08/23 01:45:16;;;;;;;;;;;;;;;;;;8406222;27;27376;-75
2022/08/23 01:49:17;;;;;;;;;;;;;;;;;;8402402;27;28070;-75
2022/08/23 01:53:18;;;;;;;;;;;;;;;;;;8394833;27;28621;-74
2022/08/23 01:57:18;;;;;;;;;;;;;;;;;;8395676;27;28534;-74
2022/08/23 02:01:19;;;;;;;;;;;;;;;;;;8401380;27;29000;-75
2022/08/23 02:05:19;;;;;;;;;;;;;;;;;;8398624;27;28310;-76
2022/08/23 02:09:19;;;;;;;;;;;;;;;;;;8385757;27;29215;-75
2022/08/23 02:13:19;;;;;;;;;;;;;;;;;;8401388;27;27250;-74
2022/08/23 02:17:20;;;;;;;;;;;;;;;;;;8410113;27;29041;-77
2022/08/23 02:21:21;;;;;;;;;;;;;;;;;;8380346;27;28263;-76
2022/08/23 02:25:21;;;;;;;;;;;;;;;;;;8406782;27;27722;-76
2022/08/23 02:29:21;;;;;;;;;;;;;;;;;;8393380;27;28337;-76
2022/08/23 02:33:21;;;;;;;;;;;;;;;;;;8405626;27;29862;-77
2022/08/23 02:37:21;;;;;;;;;;;;;;;;;;8403126;27;28207;-75
2022/08/23 02:41:22;;;;;;;;;;;;;;;;;;8396188;27;27974;-76
2022/08/23 02:45:22;;;;;;;;;;;;;;;;;;8404015;27;27863;-76
2022/08/23 02:49:23;;;;;;;;;;;;;;;;;;8395767;27;27876;-75
2022/08/23 02:53:23;;;;;;;;;;;;;;;;;;8391914;27;28452;-77
2022/08/23 02:57:23;;;;;;;;;;;;;;;;;;8402178;27;27163;-75
2022/08/23 03:01:24;;;;;;;;;;;;;;;;;;8395905;27;27362;-75
2022/08/23 03:05:24;;;;;;;;;;;;;;;;;;8405731;27;28354;-76
2022/08/23 03:09:24;;;;;;;;;;;;;;;;;;8403343;27;27726;-76
2022/08/23 03:13:24;;;;;;;;;;;;;;;;;;8408752;27;28185;-76
2022/08/23 03:17:24;;;;;;;;;;;;;;;;;;8411937;27;27565;-75
2022/08/23 03:21:24;;;;;;;;;;;;;;;;;;8399350;27;27766;-76
2022/08/23 03:25:24;;;;;;;;;;;;;;;;;;8402476;27;28258;-76
2022/08/23 03:29:25;;;;;;;;;;;;;;;;;;8399978;27;27452;-74
2022/08/23 03:33:25;;;;;;;;;;;;;;;;;;8404200;27;27989;-75
2022/08/23 03:37:25;;;;;;;;;;;;;;;;;;8402709;27;27336;-74
2022/08/23 03:41:25;;;;;;;;;;;;;;;;;;8399740;27;27972;-76
2022/08/23 03:45:25;;;;;;;;;;;;;;;;;;8406445;27;28121;-76
2022/08/23 03:49:25;;;;;;;;;;;;;;;;;;8399689;27;28213;-76
2022/08/23 03:53:26;;;;;;;;;;;;;;;;;;8387006;27;28586;-76
2022/08/23 03:57:26;;;;;;;;;;;;;;;;;;8390345;27;28297;-76
2022/08/23 04:01:26;;;;;;;;;;;;;;;;;;8394391;27;28364;-76
2022/08/23 04:05:27;;;;;;;;;;;;;;;;;;8400451;27;27701;-77
2022/08/23 04:09:28;;;;;;;;;;;;;;;;;;8395590;27;28801;-76
2022/08/23 04:13:28;;;;;;;;;;;;;;;;;;8398112;27;28635;-75
2022/08/23 04:17:28;;;;;;;;;;;;;;;;;;8405608;27;27551;-76
2022/08/23 04:21:28;;;;;;;;;;;;;;;;;;8374216;27;28135;-75
2022/08/23 04:25:30;;;;;;;;;;;;;;;;;;8394473;27;27406;-76
2022/08/23 04:29:30;;;;;;;;;;;;;;;;;;8387367;27;28240;-76
2022/08/23 04:33:31;;;;;;;;;;;;;;;;;;8396929;27;29030;-77
2022/08/23 04:37:34;;;;;;;;;;;;;;;;;;8384085;27;28354;-75
2022/08/23 04:45:53;;;;;;;;;;;;;;;;;;8400112;27;28565;-76
2022/08/23 04:49:53;;;;;;;;;;;;;;;;;;8398675;27;28505;-76
2022/08/23 04:53:54;;;;;;;;;;;;;;;;;;8412125;27;27477;-76
2022/08/23 04:57:54;;;;;;;;;;;;;;;;;;8413768;27;28510;-76
2022/08/23 05:01:54;;;;;;;;;;;;;;;;;;8405823;27;27306;-76
2022/08/23 05:05:55;;;;;;;;;;;;;;;;;;8405940;27;27860;-75
2022/08/23 05:09:55;;;;;;;;;;;;;;;;;;8404384;27;27489;-75
2022/08/23 05:13:55;;;;;;;;;;;;;;;;;;8395366;27;28657;-75
2022/08/23 05:17:55;;;;;;;;;;;;;;;;;;8396175;27;28432;-76
2022/08/23 05:21:56;;;;;;;;;;;;;;;;;;8384147;27;28319;-76
2022/08/23 05:25:57;;;;;;;;;;;;;;;;;;8410165;27;27512;-76
2022/08/23 05:29:57;;;;;;;;;;;;;;;;;;8404479;27;28276;-74
2022/08/23 05:33:57;;;;;;;;;;;;;;;;;;8394678;27;28717;-74
2022/08/23 05:38:01;;;;;;;;;;;;;;;;;;8409536;27;27710;-75
2022/08/23 05:42:01;;;;;;;;;;;;;;;;;;8397703;27;28143;-75
2022/08/23 05:46:03;;;;;;;;;;;;;;;;;;8408176;27;27474;-76
2022/08/23 05:50:03;;;;;;;;;;;;;;;;;;8399434;27;27553;-73
2022/08/23 05:54:03;;;;;;;;;;;;;;;;;;8411659;27;27592;-76
2022/08/23 05:58:03;;;;;;;;;;;;;;;;;;8391671;27;28184;-76
2022/08/23 06:02:04;;;;;;;;;;;;;;;;;;8384363;27;28255;-76
2022/08/23 06:06:05;;;;;;;;;;;;;;;;;;8405004;27;27353;-76
2022/08/23 06:10:05;;;;;;;;;;;;;;;;;;8400330;27;28006;-76
2022/08/23 06:14:06;;;;;;;;;;;;;;;;;;8396780;27;28258;-76
2022/08/23 06:18:06;;;;;;;;;;;;;;;;;;8392328;27;29081;-75
2022/08/23 06:22:06;;;;;;;;;;;;;;;;;;8401646;27;27589;-74
2022/08/23 06:26:06;;;;;;;;;;;;;;;;;;8386417;27;28209;-73
2022/08/23 06:30:07;;;;;;;;;;;;;;;;;;8398336;27;27978;-77
2022/08/23 06:34:07;;;;;;;;;;;;;;;;;;8395946;27;27323;-75
2022/08/23 06:38:07;;;;;;;;;;;;;;;;;;8398738;27;27412;-76
2022/08/23 06:42:07;;;;;;;;;;;;;;;;;;8396806;27;27693;-76
2022/08/23 06:46:07;;;;;;;;;;;;;;;;;;8407983;27;27600;-76
2022/08/23 06:50:08;;;;;;;;;;;;;;;;;;8382836;28;28388;-76
2022/08/23 06:54:08;;;;;;;;;;;;;;;;;;8397697;27;27636;-77
2022/08/23 06:58:08;;;;;;;;;;;;;;;;;;8393146;27;27918;-76
2022/08/23 07:02:09;;;;;;;;;;;;;;;;;;8382403;27;28153;-77
2022/08/23 07:06:09;;;;;;;;;;;;;;;;;;8386959;27;28030;-76
2022/08/23 07:10:09;;;;;;;;;;;;;;;;;;8383641;27;29772;-76
2022/08/23 07:14:09;;;;;;;;;;;;;;;;;;8404582;27;28051;-76
2022/08/23 07:18:12;;;;;;;;;;;;;;;;;;8408693;27;27502;-77
2022/08/23 07:22:12;;;;;;;;;;;;;;;;;;8380764;27;29352;-77
2022/08/23 07:26:12;;;;;;;;;;;;;;;;;;8406635;27;27382;-76
2022/08/23 07:30:13;;;;;;;;;;;;;;;;;;8399790;27;27565;-75
2022/08/23 07:34:13;;;;;;;;;;;;;;;;;;8403701;27;27456;-74
2022/08/23 07:38:14;;;;;;;;;;;;;;;;;;8402676;27;28156;-76
2022/08/23 07:42:14;;;;;;;;;;;;;;;;;;8395069;27;28645;-77
2022/08/23 07:46:14;;;;;;;;;;;;;;;;;;8406798;27;28214;-76
2022/08/23 07:50:15;;;;;;;;;;;;;;;;;;8396853;27;28382;-75
2022/08/23 07:54:15;;;;;;;;;;;;;;;;;;8401244;27;27582;-76
2022/08/23 07:58:15;;;;;;;;;;;;;;;;;;8386741;27;28328;-76
2022/08/23 08:02:15;;;;;;;;;;;;;;;;;;8394965;27;28325;-76
2022/08/23 08:06:15;;;;;;;;;;;;;;;;;;8400384;27;27696;-75
2022/08/23 08:10:15;;;;;;;;;;;;;;;;;;8383321;27;28249;-75
2022/08/23 08:14:16;;;;;;;;;;;;;;;;;;8405343;27;28167;-74
2022/08/23 08:18:17;;;;;;;;;;;;;;;;;;8408899;27;27185;-74
2022/08/23 08:22:17;;;;;;;;;;;;;;;;;;8396815;27;28244;-73
2022/08/23 08:26:17;;;;;;;;;;;;;;;;;;8405743;27;46997;-76
2022/08/23 08:30:17;;;;;;;;;;;;;;;;;;8395442;27;27752;-76
2022/08/23 08:34:17;;;;;;;;;;;;;;;;;;8398833;27;27853;-75
2022/08/23 08:38:17;;;;;;;;;;;;;;;;;;8403768;27;27675;-75
2022/08/23 08:42:18;;;;;;;;;;;;;;;;;;8395075;27;28181;-74
2022/08/23 08:46:18;;;;;;;;;;;;;;;;;;8390488;27;29561;-75
2022/08/23 08:50:18;;;;;;;;;;;;;;;;;;8397429;27;27645;-75
2022/08/23 08:54:18;;;;;;;;;;;;;;;;;;8382771;27;28661;-75
2022/08/23 08:58:18;;;;;;;;;;;;;;;;;;8390067;27;28286;-74
2022/08/23 09:02:19;;;;;;;;;;;;;;;;;;8392067;27;28395;-75
2022/08/23 09:06:19;;;;;;;;;;;;;;;;;;8401154;27;27686;-74
2022/08/23 09:10:19;;;;;;;;;;;;;;;;;;8392575;27;28249;-75
2022/08/23 09:14:19;;;;;;;;;;;;;;;;;;8380523;27;28367;-76
2022/08/23 09:18:20;;;;;;;;;;;;;;;;;;8394896;27;28130;-76
2022/08/23 09:22:20;;;;;;;;;;;;;;;;;;8395972;27;27624;-75
2022/08/23 09:26:21;;;;;;;;;;;;;;;;;;8396368;27;27644;-76
2022/08/23 09:30:22;;;;;;;;;;;;;;;;;;8369648;27;29543;-75
2022/08/23 09:34:22;;;;;;;;;;;;;;;;;;8401210;27;27632;-74
2022/08/23 09:38:23;;;;;;;;;;;;;;;;;;8398781;27;27898;-75
2022/08/23 09:42:24;;;;;;;;;;;;;;;;;;8403607;27;27823;-76
2022/08/23 09:46:24;;;;;;;;;;;;;;;;;;8407417;27;28132;-76
2022/08/23 09:50:25;;;;;;;;;;;;;;;;;;8399908;27;27443;-74
2022/08/23 09:54:25;;;;;;;;;;;;;;;;;;8394173;27;28620;-73
2022/08/23 09:58:25;;;;;;;;;;;;;;;;;;8409317;27;27764;-74
2022/08/23 10:02:25;;;;;;;;;;;;;;;;;;8399280;27;27606;-73
2022/08/23 10:06:25;;;;;;;;;;;;;;;;;;8406148;27;28076;-75
2022/08/23 10:10:25;;;;;;;;;;;;;;;;;;8395960;27;27738;-75
2022/08/23 10:14:25;;;;;;;;;;;;;;;;;;8404177;27;28196;-75
2022/08/23 10:18:26;;;;;;;;;;;;;;;;;;8404820;27;27588;-74
2022/08/23 10:22:26;;;;;;;;;;;;;;;;;;8404827;27;27407;-76
2022/08/23 10:26:26;;;;;;;;;;;;;;;;;;8406826;27;27910;-76
2022/08/23 10:30:26;;;;;;;;;;;;;;;;;;8400893;27;27673;-76
2022/08/23 10:34:27;;;;;;;;;;;;;;;;;;8388525;27;28372;-76
2022/08/23 10:38:28;;;;;;;;;;;;;;;;;;8405493;27;27895;-73
2022/08/23 10:42:28;;;;;;;;;;;;;;;;;;8385195;27;28982;-75
2022/08/23 10:46:28;;;;;;;;;;;;;;;;;;8403936;27;28131;-75
2022/08/23 10:50:28;;;;;;;;;;;;;;;;;;8400114;27;28338;-75
2022/08/23 10:54:33;;;;;;;;;;;;;;;;;;8402807;27;27974;-75
2022/08/23 10:58:34;;;;;;;;;;;;;;;;;;8399018;27;27437;-73
2022/08/23 11:02:34;;;;;;;;;;;;;;;;;;8404052;27;28482;-74
2022/08/23 11:06:34;;;;;;;;;;;;;;;;;;8404574;27;27574;-75
2022/08/23 11:10:34;;;;;;;;;;;;;;;;;;8385432;27;28506;-74
2022/08/23 11:14:35;;;;;;;;;;;;;;;;;;8408418;27;27488;-75
2022/08/23 11:18:35;;;;;;;;;;;;;;;;;;8397589;27;28156;-73
2022/08/23 11:22:35;;;;;;;;;;;;;;;;;;8404606;27;27644;-75
2022/08/23 11:26:36;;;;;;;;;;;;;;;;;;8401977;27;27853;-74
2022/08/23 11:30:36;;;;;;;;;;;;;;;;;;8404169;27;28094;-76
2022/08/23 11:34:36;;;;;;;;;;;;;;;;;;8392406;27;28625;-75
2022/08/23 11:38:36;;;;;;;;;;;;;;;;;;8400424;27;29012;-73
2022/08/23 11:42:37;;;;;;;;;;;;;;;;;;8406350;27;28299;-74
2022/08/23 11:46:41;;;;;;;;;;;;;;;;;;8410223;27;27685;-75
2022/08/23 11:50:41;;;;;;;;;;;;;;;;;;8385443;27;28460;-75
2022/08/23 11:54:41;;;;;;;;;;;;;;;;;;8403527;27;28228;-74
2022/08/23 11:58:42;;;;;;;;;;;;;;;;;;8397565;27;28310;-75
2022/08/23 12:02:46;;;;;;;;;;;;;;;;;;8395410;27;28768;-74
2022/08/23 12:06:46;;;;;;;;;;;;;;;;;;8404678;27;27790;-74
2022/08/23 12:10:46;;;;;;;;;;;;;;;;;;8400466;27;28027;-75
2022/08/23 12:14:46;;;;;;;;;;;;;;;;;;8400886;27;27825;-75
2022/08/23 12:18:46;;;;;;;;;;;;;;;;;;8396044;27;28861;-76
2022/08/23 12:22:47;;;;;;;;;;;;;;;;;;8402867;27;28430;-75
2022/08/23 12:26:48;;;;;;;;;;;;;;;;;;8397468;27;27748;-75
2022/08/23 12:30:49;;;;;;;;;;;;;;;;;;8397505;27;27620;-75
2022/08/23 12:34:49;;;;;;;;;;;;;;;;;;8398756;27;28106;-75
2022/08/23 12:38:49;;;;;;;;;;;;;;;;;;8372520;27;27949;-75
2022/08/23 12:42:50;;;;;;;;;;;;;;;;;;8392905;27;28725;-75
2022/08/23 12:46:50;;;;;;;;;;;;;;;;;;8389000;27;28726;-75
2022/08/23 12:50:50;;;;;;;;;;;;;;;;;;8397591;27;27922;-75
2022/08/23 12:54:53;;;;;;;;;;;;;;;;;;8397839;27;28599;-75
2022/08/23 12:58:53;;;;;;;;;;;;;;;;;;8383526;27;29517;-75
2022/08/23 13:02:53;;;;;;;;;;;;;;;;;;8382178;27;28525;-76
2022/08/23 13:06:54;;;;;;;;;;;;;;;;;;8400361;27;27425;-75
2022/08/23 13:10:54;;;;;;;;;;;;;;;;;;8393316;27;27416;-76
2022/08/23 13:14:54;;;;;;;;;;;;;;;;;;8400308;27;28331;-75
2022/08/23 13:18:54;;;;;;;;;;;;;;;;;;8383452;27;30019;-77
2022/08/23 13:22:55;;;;;;;;;;;;;;;;;;8403630;27;28789;-76
2022/08/23 13:26:55;;;;;;;;;;;;;;;;;;8408668;27;28387;-78
2022/08/23 13:30:55;;;;;;;;;;;;;;;;;;8383009;27;28652;-76
2022/08/23 13:34:55;;;;;;;;;;;;;;;;;;8398908;27;27659;-78
2022/08/23 13:38:55;;;;;;;;;;;;;;;;;;8392985;27;28066;-77
2022/08/23 13:42:55;;;;;;;;;;;;;;;;;;8403931;27;27930;-77
2022/08/23 13:46:55;;;;;;;;;;;;;;;;;;8399155;27;27761;-80
2022/08/23 13:50:56;;;;;;;;;;;;;;;;;;8393277;27;28430;-78
2022/08/23 13:54:56;;;;;;;;;;;;;;;;;;8391834;27;28830;-78
2022/08/23 13:58:56;;;;;;;;;;;;;;;;;;8381810;27;28651;-77
2022/08/23 14:02:56;;;;;;;;;;;;;;;;;;8402160;27;28426;-77
2022/08/23 14:06:56;;;;;;;;;;;;;;;;;;8408074;27;28632;-77
2022/08/23 14:10:56;;;;;;;;;;;;;;;;;;8400372;27;27990;-76
2022/08/23 14:14:57;;;;;;;;;;;;;;;;;;8384802;27;28608;-77
2022/08/23 14:18:57;;;;;;;;;;;;;;;;;;8392614;27;28574;-78
2022/08/23 14:22:57;;;;;;;;;;;;;;;;;;8386607;27;29040;-77
2022/08/23 14:26:57;;;;;;;;;;;;;;;;;;8381967;27;28795;-76
2022/08/23 14:30:57;;;;;;;;;;;;;;;;;;8395036;27;27777;-76
2022/08/23 14:34:57;;;;;;;;;;;;;;;;;;8403265;27;27570;-75
2022/08/23 14:38:58;;;;;;;;;;;;;;;;;;8402941;27;28210;-76
2022/08/23 14:42:58;;;;;;;;;;;;;;;;;;8401710;27;28194;-77
2022/08/23 14:46:58;;;;;;;;;;;;;;;;;;8405543;27;29074;-76
2022/08/23 14:50:58;;;;;;;;;;;;;;;;;;8384215;27;28987;-77
2022/08/23 14:54:58;;;;;;;;;;;;;;;;;;8394699;27;27560;-77
2022/08/23 14:58:58;;;;;;;;;;;;;;;;;;8402511;27;28070;-77
2022/08/23 15:02:58;;;;;;;;;;;;;;;;;;8384578;27;29554;-77
2022/08/23 15:06:59;;;;;;;;;;;;;;;;;;8385721;27;30120;-78
2022/08/23 15:10:59;;;;;;;;;;;;;;;;;;8398046;27;27692;-77
2022/08/23 15:14:59;;;;;;;;;;;;;;;;;;8398244;27;28679;-76
2022/08/23 15:18:59;;;;;;;;;;;;;;;;;;8382575;27;28589;-76
2022/08/23 15:23:00;;;;;;;;;;;;;;;;;;8396269;27;27534;-74
2022/08/23 15:27:00;;;;;;;;;;;;;;;;;;8399001;27;28538;-76
2022/08/23 15:31:00;;;;;;;;;;;;;;;;;;8385106;27;27982;-76
2022/08/23 15:35:00;;;;;;;;;;;;;;;;;;8397417;27;28292;-76
2022/08/23 15:39:00;;;;;;;;;;;;;;;;;;8378984;27;28782;-78
2022/08/23 15:43:01;;;;;;;;;;;;;;;;;;8380334;27;29655;-78
2022/08/23 15:47:02;;;;;;;;;;;;;;;;;;8405493;27;28385;-78
2022/08/23 15:51:02;;;;;;;;;;;;;;;;;;8402872;27;27996;-76
2022/08/23 15:55:02;;;;;;;;;;;;;;;;;;8381603;27;28874;-76
2022/08/23 15:59:03;;;;;;;;;;;;;;;;;;8395106;27;28767;-77
2022/08/23 16:03:03;;;;;;;;;;;;;;;;;;8389654;27;28447;-78
2022/08/23 16:07:03;;;;;;;;;;;;;;;;;;8391100;27;28820;-77
2022/08/23 16:11:07;;;;;;;;;;;;;;;;;;8395776;27;28664;-78
2022/08/23 16:15:08;;;;;;;;;;;;;;;;;;8388943;27;28646;-81
2022/08/23 16:19:08;;;;;;;;;;;;;;;;;;8398637;27;28756;-81
2022/08/23 16:23:08;;;;;;;;;;;;;;;;;;8401738;27;27568;-79
2022/08/23 16:27:08;;;;;;;;;;;;;;;;;;8386629;27;28896;-76
2022/08/23 16:31:09;;;;;;;;;;;;;;;;;;8395378;27;27706;-77
2022/08/23 16:35:09;;;;;;;;;;;;;;;;;;8398754;27;27763;-76
2022/08/23 16:39:09;;;;;;;;;;;;;;;;;;8392960;27;27954;-77
2022/08/23 16:43:09;;;;;;;;;;;;;;;;;;8382417;27;28875;-79
2022/08/23 16:47:11;;;;;;;;;;;;;;;;;;8406066;27;28209;-79
2022/08/23 16:51:11;;;;;;;;;;;;;;;;;;8399806;27;27960;-78
2022/08/23 16:55:11;;;;;;;;;;;;;;;;;;8405666;27;27890;-77
2022/08/23 16:59:11;;;;;;;;;;;;;;;;;;8397732;27;28279;-76
2022/08/23 17:03:14;;;;;;;;;;;;;;;;;;8388022;27;28615;-79
2022/08/23 17:07:14;;;;;;;;;;;;;;;;;;8411715;27;28467;-78
2022/08/23 17:11:14;;;;;;;;;;;;;;;;;;8397864;27;27758;-78
2022/08/23 17:15:14;;;;;;;;;;;;;;;;;;8405317;27;28281;-78
2022/08/23 17:19:15;;;;;;;;;;;;;;;;;;8381010;27;28866;-77
2022/08/23 17:23:15;;;;;;;;;;;;;;;;;;8395118;27;28258;-75
2022/08/23 17:27:15;;;;;;;;;;;;;;;;;;8397089;27;28558;-77
2022/08/23 17:31:16;;;;;;;;;;;;;;;;;;8380301;27;29778;-77
2022/08/23 17:35:17;;;;;;;;;;;;;;;;;;8389289;27;29105;-79
2022/08/23 17:39:17;;;;;;;;;;;;;;;;;;8396307;27;28074;-79
2022/08/23 17:43:17;;;;;;;;;;;;;;;;;;8387856;27;28847;-79
2022/08/23 17:47:17;;;;;;;;;;;;;;;;;;8388087;27;28536;-79
2022/08/23 17:51:17;;;;;;;;;;;;;;;;;;8383484;27;29090;-79
2022/08/23 17:55:18;;;;;;;;;;;;;;;;;;8400475;27;29375;-77
2022/08/23 17:59:18;;;;;;;;;;;;;;;;;;8393729;27;28235;-77
2022/08/23 18:03:18;;;;;;;;;;;;;;;;;;8387431;27;28589;-77
2022/08/23 18:07:20;;;;;;;;;;;;;;;;;;8389346;27;29235;-80
2022/08/23 18:11:20;;;;;;;;;;;;;;;;;;8375576;27;29108;-78
2022/08/23 18:15:20;;;;;;;;;;;;;;;;;;8375517;27;29487;-77
2022/08/23 18:19:20;;;;;;;;;;;;;;;;;;8380331;27;28631;-78
2022/08/23 18:23:21;;;;;;;;;;;;;;;;;;8401395;27;27932;-78
2022/08/23 18:31:40;;;;;;;;;;;;;;;;;;8389274;27;28604;-79
2022/08/23 18:35:40;;;;;;;;;;;;;;;;;;8382342;27;29793;-77
2022/08/23 18:39:40;;;;;;;;;;;;;;;;;;8393850;27;28539;-77
2022/08/23 18:43:40;;;;;;;;;;;;;;;;;;8404288;27;28951;-78
2022/08/23 18:47:40;;;;;;;;;;;;;;;;;;8404202;27;27994;-76
2022/08/23 18:51:40;;;;;;;;;;;;;;;;;;8387562;27;28142;-78
2022/08/23 18:55:41;;;;;;;;;;;;;;;;;;8397569;27;28703;-78
2022/08/23 18:59:41;;;;;;;;;;;;;;;;;;8389060;27;28653;-79
2022/08/23 19:03:41;;;;;;;;;;;;;;;;;;8397587;27;28282;-77
2022/08/23 19:07:41;;;;;;;;;;;;;;;;;;8400709;27;28560;-77
2022/08/23 19:11:41;;;;;;;;;;;;;;;;;;8395235;27;28305;-79
2022/08/23 19:15:41;;;;;;;;;;;;;;;;;;8390355;27;28989;-77
2022/08/23 19:19:42;;;;;;;;;;;;;;;;;;8393615;27;28428;-79
2022/08/23 19:23:42;;;;;;;;;;;;;;;;;;8398602;27;28036;-77
2022/08/23 19:27:42;;;;;;;;;;;;;;;;;;8388928;27;28535;-78
2022/08/23 19:31:45;;;;;;;;;;;;;;;;;;8392315;27;27539;-78
2022/08/23 19:35:45;;;;;;;;;;;;;;;;;;8382619;27;29003;-77
2022/08/23 19:39:45;;;;;;;;;;;;;;;;;;8386693;27;27931;-75
2022/08/23 19:43:46;;;;;;;;;;;;;;;;;;8374251;27;29385;-75
2022/08/23 19:47:46;;;;;;;;;;;;;;;;;;8383435;27;28557;-76
2022/08/23 19:51:46;;;;;;;;;;;;;;;;;;8383841;27;28809;-77
2022/08/23 19:55:46;;;;;;;;;;;;;;;;;;8365500;27;28562;-77
2022/08/23 19:59:46;;;;;;;;;;;;;;;;;;8380831;27;27977;-79
2022/08/23 20:03:47;;;;;;;;;;;;;;;;;;8387980;27;28358;-78
2022/08/23 20:07:47;;;;;;;;;;;;;;;;;;8390641;27;27852;-77
2022/08/23 20:11:47;;;;;;;;;;;;;;;;;;8384236;27;28886;-78
2022/08/23 20:15:47;;;;;;;;;;;;;;;;;;8387233;27;28050;-80
2022/08/23 20:19:48;;;;;;;;;;;;;;;;;;8372240;27;29098;-79
2022/08/23 20:24:00;;;;;;;;;;;;;;;;;;8393036;27;28208;-78
2022/08/23 20:28:03;;;;;;;;;;;;;;;;;;8395126;27;27842;-78
2022/08/23 20:32:06;;;;;;;;;;;;;;;;;;8370123;27;46618;-77
2022/08/23 20:36:06;;;;;;;;;;;;;;;;;;8379130;27;28458;-76
2022/08/23 20:40:06;;;;;;;;;;;;;;;;;;8389380;27;27976;-78
2022/08/23 20:44:07;;;;;;;;;;;;;;;;;;8372531;27;28644;-77
2022/08/23 20:48:07;;;;;;;;;;;;;;;;;;8396364;27;28020;-76
2022/08/23 20:52:07;;;;;;;;;;;;;;;;;;8374880;27;28559;-76
2022/08/23 20:56:07;;;;;;;;;;;;;;;;;;8385575;27;27785;-75
2022/08/23 21:00:08;;;;;;;;;;;;;;;;;;8382763;27;28553;-76
2022/08/23 21:04:08;;;;;;;;;;;;;;;;;;8393650;27;28454;-77
2022/08/23 21:08:08;;;;;;;;;;;;;;;;;;8375120;27;29073;-78
2022/08/23 21:12:08;;;;;;;;;;;;;;;;;;8365191;27;28940;-75
2022/08/23 21:16:08;;;;;;;;;;;;;;;;;;8376386;27;28950;-77
2022/08/23 21:20:08;;;;;;;;;;;;;;;;;;8384077;27;28386;-76
2022/08/23 21:24:08;;;;;;;;;;;;;;;;;;8375096;27;28482;-78
2022/08/23 21:28:09;;;;;;;;;;;;;;;;;;8389930;27;28578;-76
2022/08/23 21:32:09;;;;;;;;;;;;;;;;;;8388372;27;28173;-78
2022/08/23 21:36:09;;;;;;;;;;;;;;;;;;8394365;27;27963;-76
2022/08/23 21:40:09;;;;;;;;;;;;;;;;;;8390039;27;28423;-78
2022/08/23 21:44:09;;;;;;;;;;;;;;;;;;8398225;27;28136;-78
2022/08/23 21:48:10;;;;;;;;;;;;;;;;;;8376644;27;29044;-79
2022/08/23 21:52:10;;;;;;;;;;;;;;;;;;8389286;27;28472;-79
2022/08/23 21:56:11;;;;;;;;;;;;;;;;;;8394882;27;28654;-79
2022/08/23 22:00:17;;;;;;;;;;;;;;;;;;8387949;27;27672;-78
2022/08/23 22:04:17;;;;;;;;;;;;;;;;;;8378441;28;28971;-78
2022/08/23 22:08:17;;;;;;;;;;;;;;;;;;8383103;27;28728;-79
2022/08/23 22:12:18;;;;;;;;;;;;;;;;;;8390217;27;28249;-78
2022/08/23 22:16:18;;;;;;;;;;;;;;;;;;8385591;27;28780;-78
2022/08/23 22:20:19;;;;;;;;;;;;;;;;;;8389384;27;27839;-77
2022/08/23 22:24:19;;;;;;;;;;;;;;;;;;8401515;27;28015;-77
2022/08/23 22:28:19;;;;;;;;;;;;;;;;;;8388090;27;28577;-77
2022/08/23 22:32:20;;;;;;;;;;;;;;;;;;8396970;27;29215;-77
2022/08/23 22:36:20;;;;;;;;;;;;;;;;;;8403645;27;28121;-79
2022/08/23 22:40:20;;;;;;;;;;;;;;;;;;8384559;27;28816;-76
2022/08/23 22:44:20;;;;;;;;;;;;;;;;;;8386762;27;28546;-78
2022/08/23 22:48:21;;;;;;;;;;;;;;;;;;8398182;27;28308;-79
2022/08/23 22:52:21;;;;;;;;;;;;;;;;;;8379093;27;28793;-78
2022/08/23 22:56:21;;;;;;;;;;;;;;;;;;8405791;27;28505;-79
2022/08/23 23:00:21;;;;;;;;;;;;;;;;;;8393820;27;27856;-78
2022/08/23 23:04:21;;;;;;;;;;;;;;;;;;8396186;27;28377;-78
2022/08/23 23:08:27;;;;;;;;;;;;;;;;;;8399361;27;28410;-77
2022/08/23 23:12:30;;;;;;;;;;;;;;;;;;8381747;27;28891;-76
2022/08/23 23:16:30;;;;;;;;;;;;;;;;;;8405239;27;29225;-77
2022/08/23 23:20:37;;;;;;;;;;;;;;;;;;8403455;27;27775;-79
2022/08/23 23:24:38;;;;;;;;;;;;;;;;;;8391693;27;29572;-78
2022/08/23 23:28:38;;;;;;;;;;;;;;;;;;8402800;27;28448;-78
2022/08/23 23:32:38;;;;;;;;;;;;;;;;;;8385713;27;28543;-79
2022/08/23 23:36:39;;;;;;;;;;;;;;;;;;8395575;28;27908;-77
2022/08/23 23:40:39;;;;;;;;;;;;;;;;;;8396952;27;28024;-76
2022/08/23 23:44:39;;;;;;;;;;;;;;;;;;8402629;27;29868;-77
2022/08/23 23:48:39;;;;;;;;;;;;;;;;;;8399238;27;28229;-77
2022/08/23 23:52:39;;;;;;;;;;;;;;;;;;8399554;27;27661;-78
2022/08/23 23:56:39;;;;;;;;;;;;;;;;;;8395733;27;28041;-77
